This is the latest recevied weather packets stored in our database for station/object OK0BPL-5. If no packets are shown the sender has not sent any weather packets the latest 10 day(s).
| Time | Temp. | Humidity | Pressure | Rain* | Wind** | Luminosity | Snow |
|---|---|---|---|---|---|---|---|
| 1787644231 | 20.56° C | 50% | 1037.3 hPa | 0 mm | - | 141 W/m² | - |
| 1787643331 | 21.11° C | 50% | 1037.2 hPa | 0 mm | - | 136 W/m² | - |
| 1787643331 | 21.11° C | 50% | 1037.2 hPa | 0 mm | - | 136 W/m² | - |
| 1787642431 | 20° C | 54% | 1037.6 hPa | 0 mm | - | 117 W/m² | - |
| 1787642431 | 20° C | 54% | 1037.6 hPa | 0 mm | - | 117 W/m² | - |
| 1787641531 | 19.44° C | 57% | 1037.7 hPa | 0 mm | - | 103 W/m² | - |
| 1787641531 | 19.44° C | 57% | 1037.7 hPa | 0 mm | - | 103 W/m² | - |
| 1787640631 | 19.44° C | 56% | 1037.6 hPa | 0 mm | - | 90 W/m² | - |
| 1787640631 | 19.44° C | 56% | 1037.6 hPa | 0 mm | - | 90 W/m² | - |
| 1787639731 | 20° C | 55% | 1037.7 hPa | 0 mm | - | 132 W/m² | - |
| 1787638831 | 18.33° C | 60% | 1038.2 hPa | 0 mm | - | 79 W/m² | - |
| 1787638831 | 18.33° C | 60% | 1038.2 hPa | 0 mm | - | 79 W/m² | - |
| 1787637931 | 18.33° C | 62% | 1038.6 hPa | 0 mm | - | 65 W/m² | - |
| 1787637931 | 18.33° C | 62% | 1038.6 hPa | 0 mm | - | 65 W/m² | - |
| 1787637031 | 17.22° C | 66% | 1038.8 hPa | 0 mm | - | 50 W/m² | - |
| 1787637031 | 17.22° C | 66% | 1038.8 hPa | 0 mm | - | 50 W/m² | - |
| 1787636131 | 16.11° C | 70% | 1039 hPa | 0 mm | - | 27 W/m² | - |
| 1787635231 | 15° C | 74% | 1039.2 hPa | 0 mm | - | 28 W/m² | - |
| 1787634331 | 14.44° C | 79% | 1039.4 hPa | 0 mm | - | 12 W/m² | - |
| 1787634331 | 14.44° C | 79% | 1039.4 hPa | 0 mm | - | 12 W/m² | - |
| 1787633431 | 14.44° C | 79% | 1039.6 hPa | 0 mm | - | 7 W/m² | - |
| 1787633431 | 14.44° C | 79% | 1039.6 hPa | 0 mm | - | 7 W/m² | - |
| 1787632531 | 14.44° C | 79% | 1039.8 hPa | 0 mm | - | 5 W/m² | - |
| 1787631631 | 14.44° C | 79% | 1040 hPa | 0 mm | - | 2 W/m² | - |
| 1787631631 | 14.44° C | 79% | 1040 hPa | 0 mm | - | 2 W/m² | - |
* Rain latest hour (hover to see other rain measurements)
** Current wind speed in m/s (hover to see current wind gust speed)